sensor_id;sensor_type;location;lat;lon;timestamp;pressure;altitude;pressure_sealevel;temperature;humidity
6216;BME280;3141;49.234;9.326;2023-05-23T00:00:06;99424.47;;;20.97;77.52
6216;BME280;3141;49.234;9.326;2023-05-23T00:01:07;99425.25;;;20.97;77.07
6216;BME280;3141;49.234;9.326;2023-05-23T00:02:14;99427.75;;;20.99;77.23
6216;BME280;3141;49.234;9.326;2023-05-23T00:03:16;99428.03;;;20.91;77.53
6216;BME280;3141;49.234;9.326;2023-05-23T00:04:17;99431.19;;;20.88;77.52
6216;BME280;3141;49.234;9.326;2023-05-23T00:05:20;99423.06;;;20.76;78.47
6216;BME280;3141;49.234;9.326;2023-05-23T00:06:21;99416.75;;;20.71;78.84
6216;BME280;3141;49.234;9.326;2023-05-23T00:07:23;99415.34;;;20.68;78.83
6216;BME280;3141;49.234;9.326;2023-05-23T00:08:25;99418.97;;;20.74;78.61
6216;BME280;3141;49.234;9.326;2023-05-23T00:09:26;99420.25;;;20.71;78.41
6216;BME280;3141;49.234;9.326;2023-05-23T00:10:27;99420.75;;;20.80;77.89
6216;BME280;3141;49.234;9.326;2023-05-23T00:11:29;99426.72;;;20.82;77.54
6216;BME280;3141;49.234;9.326;2023-05-23T00:12:31;99425.09;;;20.81;77.66
6216;BME280;3141;49.234;9.326;2023-05-23T00:13:33;99414.34;;;20.81;77.32
6216;BME280;3141;49.234;9.326;2023-05-23T00:14:34;99420.88;;;20.85;77.42
6216;BME280;3141;49.234;9.326;2023-05-23T00:15:35;99420.88;;;20.85;77.14
6216;BME280;3141;49.234;9.326;2023-05-23T00:16:42;99417.41;;;20.84;77.67
6216;BME280;3141;49.234;9.326;2023-05-23T00:17:44;99420.19;;;20.78;77.83
6216;BME280;3141;49.234;9.326;2023-05-23T00:18:46;99419.72;;;20.81;77.52
6216;BME280;3141;49.234;9.326;2023-05-23T00:19:47;99415.97;;;20.82;77.51
6216;BME280;3141;49.234;9.326;2023-05-23T00:20:48;99421.56;;;20.80;77.58
6216;BME280;3141;49.234;9.326;2023-05-23T00:21:52;99421.81;;;20.79;78.21
6216;BME280;3141;49.234;9.326;2023-05-23T00:22:56;99421.91;;;20.72;78.39
6216;BME280;3141;49.234;9.326;2023-05-23T00:23:58;99430.72;;;20.61;79.62
6216;BME280;3141;49.234;9.326;2023-05-23T00:24:59;99420.09;;;20.66;78.86
6216;BME280;3141;49.234;9.326;2023-05-23T00:26:02;99425.25;;;20.67;78.77
6216;BME280;3141;49.234;9.326;2023-05-23T00:27:03;99423.03;;;20.64;79.23
6216;BME280;3141;49.234;9.326;2023-05-23T00:28:04;99422.50;;;20.56;78.75
6216;BME280;3141;49.234;9.326;2023-05-23T00:29:05;99429.47;;;20.63;78.51
6216;BME280;3141;49.234;9.326;2023-05-23T00:30:07;99428.16;;;20.66;78.02
6216;BME280;3141;49.234;9.326;2023-05-23T00:31:08;99423.63;;;20.66;77.86
6216;BME280;3141;49.234;9.326;2023-05-23T00:32:09;99423.25;;;20.63;78.50
6216;BME280;3141;49.234;9.326;2023-05-23T00:33:10;99429.53;;;20.57;78.79
6216;BME280;3141;49.234;9.326;2023-05-23T00:34:14;99427.53;;;20.52;79.33
6216;BME280;3141;49.234;9.326;2023-05-23T00:35:17;99421.53;;;20.50;79.14
6216;BME280;3141;49.234;9.326;2023-05-23T00:36:18;99423.06;;;20.46;80.17
6216;BME280;3141;49.234;9.326;2023-05-23T00:37:19;99426.13;;;20.50;79.83
6216;BME280;3141;49.234;9.326;2023-05-23T00:38:21;99426.69;;;20.52;79.61
6216;BME280;3141;49.234;9.326;2023-05-23T00:39:23;99426.13;;;20.50;79.55
6216;BME280;3141;49.234;9.326;2023-05-23T00:40:24;99432.88;;;20.52;79.60
6216;BME280;3141;49.234;9.326;2023-05-23T00:41:25;99428.94;;;20.55;79.58
6216;BME280;3141;49.234;9.326;2023-05-23T00:42:29;99427.44;;;20.59;79.87
6216;BME280;3141;49.234;9.326;2023-05-23T00:43:32;99434.69;;;20.58;80.20
6216;BME280;3141;49.234;9.326;2023-05-23T00:44:33;99430.94;;;20.59;78.90
6216;BME280;3141;49.234;9.326;2023-05-23T00:45:34;99427.44;;;20.59;78.71
6216;BME280;3141;49.234;9.326;2023-05-23T00:46:35;99431.19;;;20.58;78.77
6216;BME280;3141;49.234;9.326;2023-05-23T00:47:38;99431.03;;;20.53;80.06
6216;BME280;3141;49.234;9.326;2023-05-23T00:48:39;99428.44;;;20.46;79.98
6216;BME280;3141;49.234;9.326;2023-05-23T00:49:41;99434.38;;;20.48;80.00
6216;BME280;3141;49.234;9.326;2023-05-23T00:50:41;99436.63;;;20.51;79.45
6216;BME280;3141;49.234;9.326;2023-05-23T00:51:42;99441.63;;;20.48;79.97
6216;BME280;3141;49.234;9.326;2023-05-23T00:52:44;99439.38;;;20.45;80.10
6216;BME280;3141;49.234;9.326;2023-05-23T00:53:46;99438.13;;;20.47;80.63
6216;BME280;3141;49.234;9.326;2023-05-23T00:54:48;99435.81;;;20.51;80.34
6216;BME280;3141;49.234;9.326;2023-05-23T00:55:49;99432.16;;;20.45;80.81
6216;BME280;3141;49.234;9.326;2023-05-23T00:56:51;99434.69;;;20.40;81.37
6216;BME280;3141;49.234;9.326;2023-05-23T00:57:53;99436.78;;;20.38;81.77
6216;BME280;3141;49.234;9.326;2023-05-23T00:58:58;99443.81;;;20.39;81.52
6216;BME280;3141;49.234;9.326;2023-05-23T01:00:00;99446.47;;;20.39;81.32
6216;BME280;3141;49.234;9.326;2023-05-23T01:01:01;99433.94;;;20.33;82.04
6216;BME280;3141;49.234;9.326;2023-05-23T01:02:02;99444.00;;;20.20;83.04
6216;BME280;3141;49.234;9.326;2023-05-23T01:03:04;99450.97;;;20.27;83.02
6216;BME280;3141;49.234;9.326;2023-05-23T01:04:05;99445.28;;;20.35;81.92
6216;BME280;3141;49.234;9.326;2023-05-23T01:05:08;99447.50;;;20.38;81.45
6216;BME280;3141;49.234;9.326;2023-05-23T01:06:10;99451.09;;;20.32;81.40
6216;BME280;3141;49.234;9.326;2023-05-23T01:07:12;99450.66;;;20.35;80.99
6216;BME280;3141;49.234;9.326;2023-05-23T01:08:13;99450.44;;;20.37;80.54
6216;BME280;3141;49.234;9.326;2023-05-23T01:09:15;99455.66;;;20.32;81.25
6216;BME280;3141;49.234;9.326;2023-05-23T01:10:28;99451.09;;;20.32;81.60
6216;BME280;3141;49.234;9.326;2023-05-23T01:11:40;99451.56;;;20.29;81.89
6216;BME280;3141;49.234;9.326;2023-05-23T01:14:31;99451.84;;;20.21;82.99
6216;BME280;3141;49.234;9.326;2023-05-23T01:15:40;99447.22;;;20.28;81.91
6216;BME280;3141;49.234;9.326;2023-05-23T01:16:52;99442.00;;;20.33;81.64
6216;BME280;3141;49.234;9.326;2023-05-23T01:18:05;99443.19;;;20.37;81.32
6216;BME280;3141;49.234;9.326;2023-05-23T01:19:31;99442.97;;;20.39;81.28
6216;BME280;3141;49.234;9.326;2023-05-23T01:20:41;99450.66;;;20.35;81.61
6216;BME280;3141;49.234;9.326;2023-05-23T01:21:47;99444.69;;;20.33;81.75
6216;BME280;3141;49.234;9.326;2023-05-23T01:25:15;99447.50;;;20.38;80.64
6216;BME280;3141;49.234;9.326;2023-05-23T01:26:40;99448.13;;;20.40;80.78
6216;BME280;3141;49.234;9.326;2023-05-23T01:27:47;99451.25;;;20.37;80.64
6216;BME280;3141;49.234;9.326;2023-05-23T01:28:54;99444.59;;;20.40;80.93
6216;BME280;3141;49.234;9.326;2023-05-23T01:29:56;99441.25;;;20.26;81.12
6216;BME280;3141;49.234;9.326;2023-05-23T01:30:59;99446.34;;;20.34;80.77
6216;BME280;3141;49.234;9.326;2023-05-23T01:32:06;99443.84;;;20.33;81.06
6216;BME280;3141;49.234;9.326;2023-05-23T01:33:09;99435.16;;;20.37;80.62
6216;BME280;3141;49.234;9.326;2023-05-23T01:34:12;99435.75;;;20.39;80.77
6216;BME280;3141;49.234;9.326;2023-05-23T01:35:17;99432.69;;;20.36;80.76
6216;BME280;3141;49.234;9.326;2023-05-23T01:36:22;99432.31;;;20.32;81.07
6216;BME280;3141;49.234;9.326;2023-05-23T01:37:23;99442.22;;;20.32;81.27
6216;BME280;3141;49.234;9.326;2023-05-23T01:38:24;99441.84;;;20.28;81.58
6216;BME280;3141;49.234;9.326;2023-05-23T01:39:25;99445.59;;;20.27;81.50
6216;BME280;3141;49.234;9.326;2023-05-23T01:40:26;99438.56;;;20.26;81.84
6216;BME280;3141;49.234;9.326;2023-05-23T01:41:27;99447.69;;;20.25;82.02
6216;BME280;3141;49.234;9.326;2023-05-23T01:42:28;99446.75;;;20.31;81.13
6216;BME280;3141;49.234;9.326;2023-05-23T01:43:29;99445.28;;;20.35;80.90
6216;BME280;3141;49.234;9.326;2023-05-23T01:44:31;99443.06;;;20.32;81.73
6216;BME280;3141;49.234;9.326;2023-05-23T01:45:32;99451.38;;;20.24;81.62
6216;BME280;3141;49.234;9.326;2023-05-23T01:46:34;99446.19;;;20.29;81.40
6216;BME280;3141;49.234;9.326;2023-05-23T01:47:39;99450.50;;;20.30;81.51
6216;BME280;3141;49.234;9.326;2023-05-23T01:48:41;99453.78;;;20.32;81.43
6216;BME280;3141;49.234;9.326;2023-05-23T01:49:44;99462.50;;;20.28;81.73
6216;BME280;3141;49.234;9.326;2023-05-23T01:50:46;99451.47;;;20.18;82.61
6216;BME280;3141;49.234;9.326;2023-05-23T01:51:47;99455.41;;;20.15;82.95
6216;BME280;3141;49.234;9.326;2023-05-23T01:52:49;99455.63;;;20.14;83.16
6216;BME280;3141;49.234;9.326;2023-05-23T01:53:50;99459.56;;;20.11;83.65
6216;BME280;3141;49.234;9.326;2023-05-23T01:54:52;99456.88;;;20.11;83.70
6216;BME280;3141;49.234;9.326;2023-05-23T01:55:53;99456.41;;;20.14;83.50
6216;BME280;3141;49.234;9.326;2023-05-23T01:56:56;99451.06;;;20.14;83.20
6216;BME280;3141;49.234;9.326;2023-05-23T01:57:58;99454.78;;;20.13;83.74
6216;BME280;3141;49.234;9.326;2023-05-23T01:58:59;99459.78;;;20.10;84.08
6216;BME280;3141;49.234;9.326;2023-05-23T02:00:03;99460.66;;;20.04;84.12
6216;BME280;3141;49.234;9.326;2023-05-23T02:01:06;99455.81;;;20.12;83.68
6216;BME280;3141;49.234;9.326;2023-05-23T02:02:07;99466.56;;;20.12;83.81
6216;BME280;3141;49.234;9.326;2023-05-23T02:03:08;99460.81;;;20.09;83.90
6216;BME280;3141;49.234;9.326;2023-05-23T02:04:08;99465.38;;;20.08;84.03
6216;BME280;3141;49.234;9.326;2023-05-23T02:05:10;99462.16;;;20.00;84.30
6216;BME280;3141;49.234;9.326;2023-05-23T02:06:11;99468.13;;;20.02;84.51
6216;BME280;3141;49.234;9.326;2023-05-23T02:07:12;99467.84;;;19.85;85.85
6216;BME280;3141;49.234;9.326;2023-05-23T02:08:13;99461.63;;;19.91;85.38
6216;BME280;3141;49.234;9.326;2023-05-23T02:09:14;99466.09;;;19.97;85.44
6216;BME280;3141;49.234;9.326;2023-05-23T02:10:16;99466.78;;;19.93;85.16
6216;BME280;3141;49.234;9.326;2023-05-23T02:11:17;99472.06;;;19.99;84.76
6216;BME280;3141;49.234;9.326;2023-05-23T02:12:18;99470.59;;;20.03;85.29
6216;BME280;3141;49.234;9.326;2023-05-23T02:13:19;99470.81;;;20.02;84.78
6216;BME280;3141;49.234;9.326;2023-05-23T02:14:20;99468.47;;;20.05;85.49
6216;BME280;3141;49.234;9.326;2023-05-23T02:15:20;99464.84;;;20.00;85.95
6216;BME280;3141;49.234;9.326;2023-05-23T02:16:21;99473.91;;;19.99;85.38
6216;BME280;3141;49.234;9.326;2023-05-23T02:17:23;99475.56;;;20.00;85.99
6216;BME280;3141;49.234;9.326;2023-05-23T02:18:24;99471.84;;;20.01;85.84
6216;BME280;3141;49.234;9.326;2023-05-23T02:19:26;99470.63;;;19.97;85.72
6216;BME280;3141;49.234;9.326;2023-05-23T02:20:27;99473.13;;;19.98;85.81
6216;BME280;3141;49.234;9.326;2023-05-23T02:21:28;99469.97;;;20.01;85.89
6216;BME280;3141;49.234;9.326;2023-05-23T02:22:29;99472.66;;;20.01;86.70
6216;BME280;3141;49.234;9.326;2023-05-23T02:23:30;99476.19;;;20.02;87.66
6216;BME280;3141;49.234;9.326;2023-05-23T02:24:31;99471.34;;;20.10;86.94
6216;BME280;3141;49.234;9.326;2023-05-23T02:25:32;99474.59;;;20.12;86.26
6216;BME280;3141;49.234;9.326;2023-05-23T02:26:33;99478.19;;;20.06;86.65
6216;BME280;3141;49.234;9.326;2023-05-23T02:27:34;99473.19;;;20.10;86.12
6216;BME280;3141;49.234;9.326;2023-05-23T02:28:35;99472.53;;;20.14;85.95
6216;BME280;3141;49.234;9.326;2023-05-23T02:29:36;99469.03;;;20.14;86.06
6216;BME280;3141;49.234;9.326;2023-05-23T02:30:37;99472.94;;;20.18;85.60
6216;BME280;3141;49.234;9.326;2023-05-23T02:31:38;99474.06;;;20.04;86.09
6216;BME280;3141;49.234;9.326;2023-05-23T02:32:39;99465.66;;;20.00;85.76
6216;BME280;3141;49.234;9.326;2023-05-23T02:33:40;99471.38;;;20.04;85.44
6216;BME280;3141;49.234;9.326;2023-05-23T02:34:41;99477.22;;;20.01;85.58
6216;BME280;3141;49.234;9.326;2023-05-23T02:35:42;99470.25;;;19.93;85.98
6216;BME280;3141;49.234;9.326;2023-05-23T02:36:43;99482.31;;;19.84;86.73
6216;BME280;3141;49.234;9.326;2023-05-23T02:37:44;99477.72;;;19.91;86.69
6216;BME280;3141;49.234;9.326;2023-05-23T02:38:45;99483.84;;;19.98;85.81
6216;BME280;3141;49.234;9.326;2023-05-23T02:39:46;99486.69;;;20.03;85.79
6216;BME280;3141;49.234;9.326;2023-05-23T02:40:47;99486.84;;;20.08;85.04
6216;BME280;3141;49.234;9.326;2023-05-23T02:41:50;99488.31;;;20.04;85.24
6216;BME280;3141;49.234;9.326;2023-05-23T02:42:51;99489.00;;;20.00;85.46
6216;BME280;3141;49.234;9.326;2023-05-23T02:43:52;99484.22;;;20.02;85.17
6216;BME280;3141;49.234;9.326;2023-05-23T02:44:53;99491.38;;;20.08;85.22
6216;BME280;3141;49.234;9.326;2023-05-23T02:45:54;99492.00;;;20.10;85.09
6216;BME280;3141;49.234;9.326;2023-05-23T02:46:55;99486.41;;;20.11;84.99
6216;BME280;3141;49.234;9.326;2023-05-23T02:47:56;99495.06;;;20.13;84.47
6216;BME280;3141;49.234;9.326;2023-05-23T02:48:57;99492.94;;;20.22;84.46
6216;BME280;3141;49.234;9.326;2023-05-23T02:49:58;99495.16;;;20.25;84.54
6216;BME280;3141;49.234;9.326;2023-05-23T02:50:59;99495.78;;;20.27;84.31
6216;BME280;3141;49.234;9.326;2023-05-23T02:52:00;99494.94;;;20.26;84.60
6216;BME280;3141;49.234;9.326;2023-05-23T02:53:01;99493.00;;;20.33;84.10
6216;BME280;3141;49.234;9.326;2023-05-23T02:54:02;99500.41;;;20.38;83.64
6216;BME280;3141;49.234;9.326;2023-05-23T02:55:03;99498.38;;;20.33;84.03
6216;BME280;3141;49.234;9.326;2023-05-23T02:56:04;99497.63;;;20.26;84.11
6216;BME280;3141;49.234;9.326;2023-05-23T02:57:07;99497.19;;;20.29;84.32
6216;BME280;3141;49.234;9.326;2023-05-23T02:58:08;99496.38;;;20.29;83.66
6216;BME280;3141;49.234;9.326;2023-05-23T02:59:09;99494.50;;;20.29;84.77
6216;BME280;3141;49.234;9.326;2023-05-23T03:00:12;99502.13;;;20.32;84.01
6216;BME280;3141;49.234;9.326;2023-05-23T03:01:13;99509.03;;;20.40;84.10
6216;BME280;3141;49.234;9.326;2023-05-23T03:02:14;99498.75;;;20.37;84.12
6216;BME280;3141;49.234;9.326;2023-05-23T03:03:15;99504.34;;;20.35;84.02
6216;BME280;3141;49.234;9.326;2023-05-23T03:04:16;99506.22;;;20.35;84.32
6216;BME280;3141;49.234;9.326;2023-05-23T03:05:18;99497.13;;;20.36;84.31
6216;BME280;3141;49.234;9.326;2023-05-23T03:06:19;99498.38;;;20.33;84.35
6216;BME280;3141;49.234;9.326;2023-05-23T03:07:21;99505.81;;;20.31;85.15
6216;BME280;3141;49.234;9.326;2023-05-23T03:08:23;99507.03;;;20.35;84.02
6216;BME280;3141;49.234;9.326;2023-05-23T03:09:24;99500.03;;;20.34;84.80
6216;BME280;3141;49.234;9.326;2023-05-23T03:10:25;99501.91;;;20.34;84.71
6216;BME280;3141;49.234;9.326;2023-05-23T03:11:26;99504.94;;;20.37;85.01
6216;BME280;3141;49.234;9.326;2023-05-23T03:12:29;99494.66;;;20.34;84.77
6216;BME280;3141;49.234;9.326;2023-05-23T03:13:30;99497.88;;;20.43;83.75
6216;BME280;3141;49.234;9.326;2023-05-23T03:14:31;99491.81;;;20.47;83.63
6216;BME280;3141;49.234;9.326;2023-05-23T03:15:32;99493.25;;;20.50;83.31
6216;BME280;3141;49.234;9.326;2023-05-23T03:16:33;99496.13;;;20.48;83.16
6216;BME280;3141;49.234;9.326;2023-05-23T03:17:34;99491.22;;;20.45;83.84
6216;BME280;3141;49.234;9.326;2023-05-23T03:18:35;99498.25;;;20.46;83.65
6216;BME280;3141;49.234;9.326;2023-05-23T03:19:36;99500.72;;;20.48;83.50
6216;BME280;3141;49.234;9.326;2023-05-23T03:20:37;99500.72;;;20.48;83.67
6216;BME280;3141;49.234;9.326;2023-05-23T03:21:38;99499.72;;;20.42;83.77
6216;BME280;3141;49.234;9.326;2023-05-23T03:22:39;99506.88;;;20.48;83.75
6216;BME280;3141;49.234;9.326;2023-05-23T03:23:43;99512.63;;;20.52;83.30
6216;BME280;3141;49.234;9.326;2023-05-23T03:24:43;99510.03;;;20.45;84.11
6216;BME280;3141;49.234;9.326;2023-05-23T03:25:44;99508.25;;;20.39;84.29
6216;BME280;3141;49.234;9.326;2023-05-23T03:26:45;99508.66;;;20.36;84.62
6216;BME280;3141;49.234;9.326;2023-05-23T03:27:47;99507.88;;;20.36;84.57
6216;BME280;3141;49.234;9.326;2023-05-23T03:28:48;99515.69;;;20.37;84.49
6216;BME280;3141;49.234;9.326;2023-05-23T03:29:50;99508.47;;;20.38;84.26
6216;BME280;3141;49.234;9.326;2023-05-23T03:30:51;99506.13;;;20.23;84.99
6216;BME280;3141;49.234;9.326;2023-05-23T03:31:52;99507.97;;;20.23;85.50
6216;BME280;3141;49.234;9.326;2023-05-23T03:32:53;99511.50;;;20.23;85.69
6216;BME280;3141;49.234;9.326;2023-05-23T03:33:54;99502.69;;;20.16;86.10
6216;BME280;3141;49.234;9.326;2023-05-23T03:34:55;99509.50;;;20.12;86.04
6216;BME280;3141;49.234;9.326;2023-05-23T03:35:56;99501.91;;;20.09;86.65
6216;BME280;3141;49.234;9.326;2023-05-23T03:36:58;99510.94;;;20.15;85.99
6216;BME280;3141;49.234;9.326;2023-05-23T03:37:59;99511.75;;;20.15;86.03
6216;BME280;3141;49.234;9.326;2023-05-23T03:39:01;99507.66;;;20.13;86.68
6216;BME280;3141;49.234;9.326;2023-05-23T03:40:02;99506.66;;;20.07;87.21
6216;BME280;3141;49.234;9.326;2023-05-23T03:41:03;99505.63;;;20.08;87.05
6216;BME280;3141;49.234;9.326;2023-05-23T03:42:04;99513.22;;;20.11;86.76
6216;BME280;3141;49.234;9.326;2023-05-23T03:43:06;99515.47;;;20.14;86.86
6216;BME280;3141;49.234;9.326;2023-05-23T03:44:07;99507.03;;;20.11;86.72
6216;BME280;3141;49.234;9.326;2023-05-23T03:45:08;99506.63;;;20.14;86.49
6216;BME280;3141;49.234;9.326;2023-05-23T03:46:09;99513.19;;;20.18;86.33
6216;BME280;3141;49.234;9.326;2023-05-23T03:47:10;99516.75;;;20.12;86.27
6216;BME280;3141;49.234;9.326;2023-05-23T03:48:11;99524.69;;;20.00;86.80
6216;BME280;3141;49.234;9.326;2023-05-23T03:49:12;99520.53;;;20.04;87.05
6216;BME280;3141;49.234;9.326;2023-05-23T03:50:13;99522.91;;;20.12;86.41
6216;BME280;3141;49.234;9.326;2023-05-23T03:51:14;99522.50;;;20.15;86.33
6216;BME280;3141;49.234;9.326;2023-05-23T03:52:15;99527.91;;;20.09;86.53
6216;BME280;3141;49.234;9.326;2023-05-23T03:53:16;99522.91;;;20.12;86.75
6216;BME280;3141;49.234;9.326;2023-05-23T03:54:17;99529.56;;;20.10;86.51
6216;BME280;3141;49.234;9.326;2023-05-23T03:55:23;99527.44;;;20.18;86.44
6216;BME280;3141;49.234;9.326;2023-05-23T03:56:25;99527.03;;;20.15;86.51
6216;BME280;3141;49.234;9.326;2023-05-23T03:57:26;99528.84;;;20.21;86.59
6216;BME280;3141;49.234;9.326;2023-05-23T03:58:27;99530.28;;;20.23;86.16
6216;BME280;3141;49.234;9.326;2023-05-23T03:59:28;99536.03;;;20.27;86.54
6216;BME280;3141;49.234;9.326;2023-05-23T04:00:29;99522.84;;;20.25;86.52
6216;BME280;3141;49.234;9.326;2023-05-23T04:01:29;99528.13;;;20.32;86.16
6216;BME280;3141;49.234;9.326;2023-05-23T04:02:31;99533.28;;;20.33;86.03
6216;BME280;3141;49.234;9.326;2023-05-23T04:03:32;99530.00;;;20.31;86.32
6216;BME280;3141;49.234;9.326;2023-05-23T04:04:33;99533.00;;;20.41;85.58
6216;BME280;3141;49.234;9.326;2023-05-23T04:05:34;99534.63;;;20.42;85.36
6216;BME280;3141;49.234;9.326;2023-05-23T04:06:35;99528.75;;;20.34;86.03
6216;BME280;3141;49.234;9.326;2023-05-23T04:07:36;99529.13;;;20.37;86.02
6216;BME280;3141;49.234;9.326;2023-05-23T04:08:38;99531.19;;;20.35;86.22
6216;BME280;3141;49.234;9.326;2023-05-23T04:09:41;99525.38;;;20.38;85.42
6216;BME280;3141;49.234;9.326;2023-05-23T04:10:42;99531.28;;;20.47;85.44
6216;BME280;3141;49.234;9.326;2023-05-23T04:11:43;99543.69;;;20.48;84.91
6216;BME280;3141;49.234;9.326;2023-05-23T04:12:44;99532.84;;;20.54;84.53
6216;BME280;3141;49.234;9.326;2023-05-23T04:13:47;99529.88;;;20.62;84.26
6216;BME280;3141;49.234;9.326;2023-05-23T04:14:48;99529.88;;;20.62;84.23
6216;BME280;3141;49.234;9.326;2023-05-23T04:15:49;99532.78;;;20.61;84.64
6216;BME280;3141;49.234;9.326;2023-05-23T04:16:51;99526.94;;;20.64;84.78
6216;BME280;3141;49.234;9.326;2023-05-23T04:17:53;99538.28;;;20.66;84.64
6216;BME280;3141;49.234;9.326;2023-05-23T04:18:54;99529.88;;;20.62;84.74
6216;BME280;3141;49.234;9.326;2023-05-23T04:19:56;99535.25;;;20.62;84.90
6216;BME280;3141;49.234;9.326;2023-05-23T04:20:57;99537.50;;;20.65;85.02
6216;BME280;3141;49.234;9.326;2023-05-23T04:21:58;99543.06;;;20.64;84.96
6216;BME280;3141;49.234;9.326;2023-05-23T04:22:59;99539.88;;;20.74;84.29
6216;BME280;3141;49.234;9.326;2023-05-23T04:24:00;99542.78;;;20.72;84.01
6216;BME280;3141;49.234;9.326;2023-05-23T04:25:01;99539.56;;;20.82;83.79
6216;BME280;3141;49.234;9.326;2023-05-23T04:26:02;99540.09;;;20.72;84.19
6216;BME280;3141;49.234;9.326;2023-05-23T04:27:05;99550.47;;;20.68;84.62
6216;BME280;3141;49.234;9.326;2023-05-23T04:28:07;99543.03;;;20.71;84.57
6216;BME280;3141;49.234;9.326;2023-05-23T04:29:10;99540.72;;;20.74;84.51
6216;BME280;3141;49.234;9.326;2023-05-23T04:30:12;99541.88;;;20.78;84.50
6216;BME280;3141;49.234;9.326;2023-05-23T04:31:13;99538.69;;;20.88;83.84
6216;BME280;3141;49.234;9.326;2023-05-23T04:32:14;99538.59;;;20.94;83.42
6216;BME280;3141;49.234;9.326;2023-05-23T04:33:16;99546.75;;;20.88;83.72
6216;BME280;3141;49.234;9.326;2023-05-23T04:34:18;99542.13;;;20.95;83.75
6216;BME280;3141;49.234;9.326;2023-05-23T04:35:21;99546.88;;;20.93;83.47
6216;BME280;3141;49.234;9.326;2023-05-23T04:36:22;99541.88;;;20.96;83.26
6216;BME280;3141;49.234;9.326;2023-05-23T04:37:25;99542.50;;;20.98;83.37
6216;BME280;3141;49.234;9.326;2023-05-23T04:38:26;99545.19;;;20.98;83.26
6216;BME280;3141;49.234;9.326;2023-05-23T04:39:28;99537.75;;;20.94;83.77
6216;BME280;3141;49.234;9.326;2023-05-23T04:40:29;99545.69;;;20.89;84.33
6216;BME280;3141;49.234;9.326;2023-05-23T04:41:31;99544.66;;;20.90;84.29
6216;BME280;3141;49.234;9.326;2023-05-23T04:42:32;99545.78;;;21.00;83.70
6216;BME280;3141;49.234;9.326;2023-05-23T04:43:33;99544.75;;;21.01;83.45
6216;BME280;3141;49.234;9.326;2023-05-23T04:44:35;99544.56;;;20.96;83.81
6216;BME280;3141;49.234;9.326;2023-05-23T04:45:37;99552.41;;;20.98;83.79
6216;BME280;3141;49.234;9.326;2023-05-23T04:46:38;99547.66;;;21.00;83.70
6216;BME280;3141;49.234;9.326;2023-05-23T04:47:42;99542.19;;;21.06;83.00
6216;BME280;3141;49.234;9.326;2023-05-23T04:48:44;99550.41;;;21.11;82.55
6216;BME280;3141;49.234;9.326;2023-05-23T04:49:45;99547.34;;;21.08;82.39
6216;BME280;3141;49.234;9.326;2023-05-23T04:50:46;99549.72;;;20.98;82.90
6216;BME280;3141;49.234;9.326;2023-05-23T04:51:47;99546.44;;;20.96;83.00
6216;BME280;3141;49.234;9.326;2023-05-23T04:52:48;99545.31;;;20.85;83.69
6216;BME280;3141;49.234;9.326;2023-05-23T04:53:50;99545.84;;;20.76;84.16
6216;BME280;3141;49.234;9.326;2023-05-23T04:54:51;99548.38;;;20.89;83.67
6216;BME280;3141;49.234;9.326;2023-05-23T04:55:53;99538.69;;;20.88;83.56
6216;BME280;3141;49.234;9.326;2023-05-23T04:56:54;99547.72;;;20.93;83.42
6216;BME280;3141;49.234;9.326;2023-05-23T04:57:56;99544.75;;;21.01;82.94
6216;BME280;3141;49.234;9.326;2023-05-23T04:58:57;99544.66;;;21.08;82.70
6216;BME280;3141;49.234;9.326;2023-05-23T04:59:58;99541.28;;;21.12;82.45
6216;BME280;3141;49.234;9.326;2023-05-23T05:01:00;99547.84;;;21.16;82.10
6216;BME280;3141;49.234;9.326;2023-05-23T05:02:01;99545.53;;;21.20;82.08
6216;BME280;3141;49.234;9.326;2023-05-23T05:03:02;99551.50;;;21.22;82.01
6216;BME280;3141;49.234;9.326;2023-05-23T05:04:03;99546.25;;;21.27;81.60
6216;BME280;3141;49.234;9.326;2023-05-23T05:05:04;99557.16;;;21.32;81.49
6216;BME280;3141;49.234;9.326;2023-05-23T05:06:05;99556.50;;;21.36;81.36
6216;BME280;3141;49.234;9.326;2023-05-23T05:07:07;99557.78;;;21.45;81.18
6216;BME280;3141;49.234;9.326;2023-05-23T05:08:08;99555.69;;;21.47;80.76
6216;BME280;3141;49.234;9.326;2023-05-23T05:09:09;99559.81;;;21.50;80.75
6216;BME280;3141;49.234;9.326;2023-05-23T05:10:10;99547.50;;;21.42;80.81
6216;BME280;3141;49.234;9.326;2023-05-23T05:11:16;99551.59;;;21.45;81.21
6216;BME280;3141;49.234;9.326;2023-05-23T05:12:17;99556.78;;;21.58;80.72
6216;BME280;3141;49.234;9.326;2023-05-23T05:13:17;99559.00;;;21.61;79.96
6216;BME280;3141;49.234;9.326;2023-05-23T05:14:18;99553.22;;;21.75;79.45
6216;BME280;3141;49.234;9.326;2023-05-23T05:15:19;99551.94;;;21.78;79.18
6216;BME280;3141;49.234;9.326;2023-05-23T05:16:21;99560.97;;;21.84;79.21
6216;BME280;3141;49.234;9.326;2023-05-23T05:17:22;99562.78;;;21.71;78.56
6216;BME280;3141;49.234;9.326;2023-05-23T05:18:25;99554.63;;;21.78;79.37
6216;BME280;3141;49.234;9.326;2023-05-23T05:19:26;99553.22;;;21.75;79.57
6216;BME280;3141;49.234;9.326;2023-05-23T05:20:26;99551.50;;;21.81;79.20
6216;BME280;3141;49.234;9.326;2023-05-23T05:21:27;99551.28;;;21.83;78.96
6216;BME280;3141;49.234;9.326;2023-05-23T05:22:28;99550.41;;;21.70;79.59
6216;BME280;3141;49.234;9.326;2023-05-23T05:23:30;99555.06;;;21.75;79.66
6216;BME280;3141;49.234;9.326;2023-05-23T05:24:31;99552.53;;;21.80;79.52
6216;BME280;3141;49.234;9.326;2023-05-23T05:25:32;99552.97;;;21.65;79.94
6216;BME280;3141;49.234;9.326;2023-05-23T05:26:35;99545.25;;;21.69;80.07
6216;BME280;3141;49.234;9.326;2023-05-23T05:27:38;99549.06;;;21.61;80.10
6216;BME280;3141;49.234;9.326;2023-05-23T05:28:39;99557.75;;;21.75;79.57
6216;BME280;3141;49.234;9.326;2023-05-23T05:29:41;99553.97;;;21.83;79.25
6216;BME280;3141;49.234;9.326;2023-05-23T05:30:42;99558.50;;;21.82;79.60
6216;BME280;3141;49.234;9.326;2023-05-23T05:31:43;99556.56;;;22.01;78.92
6216;BME280;3141;49.234;9.326;2023-05-23T05:32:44;99566.38;;;21.95;78.83
6216;BME280;3141;49.234;9.326;2023-05-23T05:33:46;99559.22;;;21.89;79.17
6216;BME280;3141;49.234;9.326;2023-05-23T05:34:46;99562.41;;;21.86;79.24
6216;BME280;3141;49.234;9.326;2023-05-23T05:35:47;99559.38;;;22.06;78.28
6216;BME280;3141;49.234;9.326;2023-05-23T05:36:48;99560.78;;;22.08;78.46
6216;BME280;3141;49.234;9.326;2023-05-23T05:37:49;99574.59;;;22.23;77.79
6216;BME280;3141;49.234;9.326;2023-05-23T05:38:50;99565.72;;;22.34;75.80
6216;BME280;3141;49.234;9.326;2023-05-23T05:39:53;99566.66;;;22.17;77.35
6216;BME280;3141;49.234;9.326;2023-05-23T05:40:54;99564.88;;;22.45;76.70